Time;durP1;ratioP1;P1;durP2;ratioP2;P2;SDS_P1;SDS_P2;PMS_P1;PMS_P2;Temp;Humidity;BMP_temperature;BMP_pressure;BME280_temperature;BME280_humidity;BME280_pressure;Samples;Min_cycle;Max_cycle;Signal;HPM_P1;HPM_P2
2022/05/21 00:00:15;;;;;;;6.13;3.60;;;;;;;15.83;89.38;97793.91;5005018;28;20505;-66
2022/05/21 00:02:42;;;;;;;10.80;4.47;;;;;;;15.79;89.42;97790.09;4988005;28;20505;-66
2022/05/21 00:05:09;;;;;;;7.88;4.50;;;;;;;15.71;88.92;97792.28;5000662;28;20588;-66
2022/05/21 00:07:36;;;;;;;5.97;4.05;;;;;;;15.58;89.83;97796.41;5004269;28;20429;-66
2022/05/21 00:10:03;;;;;;;6.22;4.63;;;;;;;15.48;89.75;97791.78;4993475;28;20042;-66
2022/05/21 00:12:30;;;;;;;6.40;4.18;;;;;;;15.33;90.49;97798.06;5002256;28;20602;-65
2022/05/21 00:14:57;;;;;;;5.75;4.45;;;;;;;15.24;90.36;97805.16;4995633;28;20038;-66
2022/05/21 00:17:24;;;;;;;6.43;4.53;;;;;;;15.20;91.37;97793.16;4990743;28;20598;-65
2022/05/21 00:19:50;;;;;;;9.82;5.95;;;;;;;15.18;90.72;97796.16;4990213;28;20763;-66
2022/05/21 00:22:17;;;;;;;6.53;4.47;;;;;;;15.10;91.02;97799.41;5000694;28;20045;-65
2022/05/21 00:24:43;;;;;;;6.60;4.53;;;;;;;15.11;90.30;97805.69;5005784;28;20057;-66
2022/05/21 00:27:11;;;;;;;6.50;4.57;;;;;;;15.05;89.10;97810.31;4997204;28;20050;-66
2022/05/21 00:29:38;;;;;;;5.68;4.15;;;;;;;14.98;88.58;97807.03;4993207;28;20042;-66
2022/05/21 00:32:05;;;;;;;6.93;4.60;;;;;;;14.99;88.13;97816.84;4997385;28;20092;-66
2022/05/21 00:34:34;;;;;;;10.45;4.35;;;;;;;14.95;88.68;97811.94;5006728;28;20034;-66
2022/05/21 00:37:02;;;;;;;7.57;4.45;;;;;;;14.85;88.50;97813.84;4994152;28;20073;-66
2022/05/21 00:39:29;;;;;;;6.80;5.18;;;;;;;14.77;89.00;97813.25;4991585;28;20035;-65
2022/05/21 00:42:02;;;;;;;6.60;4.35;;;;;;;14.66;88.86;97817.81;4987640;28;20050;-65
2022/05/21 00:44:29;;;;;;;5.93;3.80;;;;;;;14.66;88.09;97826.00;4986537;28;20050;-65
2022/05/21 00:46:56;;;;;;;9.65;4.97;;;;;;;14.62;88.13;97824.06;4997233;28;20046;-65
2022/05/21 00:49:27;;;;;;;7.13;3.83;;;;;;;14.57;88.23;97828.41;4994714;28;20050;-66
2022/05/21 00:52:00;;;;;;;5.82;3.72;;;;;;;14.52;87.34;97841.22;4986414;28;20057;-64
2022/05/21 00:54:34;;;;;;;8.20;4.55;;;;;;;14.47;88.28;97838.47;5000664;28;20046;-65
2022/05/21 00:57:14;;;;;;;6.13;3.60;;;;;;;14.37;88.10;97840.06;4991329;28;20046;-66
2022/05/21 00:59:48;;;;;;;5.78;3.50;;;;;;;14.28;88.87;97838.94;4994634;28;20045;-67
2022/05/21 01:02:23;;;;;;;8.48;3.92;;;;;;;14.27;88.02;97846.25;4991684;28;20038;-65
2022/05/21 01:04:50;;;;;;;5.82;3.47;;;;;;;14.27;87.60;97846.25;5013532;28;20653;-66
2022/05/21 01:07:18;;;;;;;6.85;3.55;;;;;;;14.20;88.14;97848.44;5005995;28;20077;-66
2022/05/21 01:09:52;;;;;;;7.18;4.22;;;;;;;14.05;88.81;97852.69;5006393;28;20107;-66
2022/05/21 01:12:22;;;;;;;8.15;4.13;;;;;;;14.02;88.71;97857.84;5006499;28;20417;-65
2022/05/21 01:14:51;;;;;;;5.65;3.83;;;;;;;13.96;88.77;97856.97;4999763;28;20505;-65
2022/05/21 01:17:20;;;;;;;5.80;3.83;;;;;;;13.90;88.85;97858.06;5004465;28;20058;-65
2022/05/21 01:19:58;;;;;;;7.35;4.63;;;;;;;13.86;88.79;97865.91;5004845;28;20528;-66
2022/05/21 01:22:27;;;;;;;7.05;4.53;;;;;;;13.84;88.87;97862.63;4989605;28;20050;-65
2022/05/21 01:24:54;;;;;;;6.40;5.10;;;;;;;13.72;88.67;97862.00;4986147;28;20038;-66
2022/05/21 01:27:22;;;;;;;6.70;5.13;;;;;;;13.70;88.93;97853.25;4997920;28;20721;-66
2022/05/21 01:29:51;;;;;;;6.57;4.25;;;;;;;13.72;89.55;97859.28;5002423;28;20107;-65
2022/05/21 01:32:18;;;;;;;6.70;4.50;;;;;;;13.50;89.45;97866.44;4990333;28;20046;-66
2022/05/21 01:34:45;;;;;;;6.93;4.68;;;;;;;13.47;90.19;97863.38;4997370;28;20049;-66
2022/05/21 01:37:12;;;;;;;8.80;5.28;;;;;;;13.43;89.72;97873.16;5000845;28;20060;-66
2022/05/21 01:39:38;;;;;;;6.90;5.30;;;;;;;13.39;90.47;97878.28;4997803;28;20034;-66
2022/05/21 01:42:05;;;;;;;7.72;5.15;;;;;;;13.35;90.35;97869.00;4992945;28;20053;-65
2022/05/21 01:44:38;;;;;;;8.48;5.45;;;;;;;13.22;90.41;97879.22;4987471;28;20045;-66
2022/05/21 01:47:12;;;;;;;7.93;5.22;;;;;;;13.18;89.35;97888.97;4993990;28;20041;-66
2022/05/21 01:49:40;;;;;;;7.50;5.60;;;;;;;13.20;89.63;97888.72;4990699;28;20042;-65
2022/05/21 01:52:08;;;;;;;6.70;4.35;;;;;;;13.13;88.79;97887.00;4991385;28;20046;-65
2022/05/21 01:54:36;;;;;;;7.00;4.40;;;;;;;13.07;89.27;97890.75;5005523;28;20532;-65
2022/05/21 01:57:04;;;;;;;8.23;4.40;;;;;;;13.00;89.26;97901.00;5004341;28;20132;-66
2022/05/21 01:59:31;;;;;;;9.65;5.22;;;;;;;12.92;89.62;97904.16;4992249;28;20046;-66
2022/05/21 02:01:57;;;;;;;7.82;4.93;;;;;;;12.91;89.72;97897.94;5008686;28;20606;-65
2022/05/21 02:04:24;;;;;;;9.73;5.20;;;;;;;12.92;89.88;97899.56;5003874;28;20070;-65
2022/05/21 02:06:50;;;;;;;7.45;4.82;;;;;;;12.83;89.89;97907.31;5004674;28;20068;-66
2022/05/21 02:09:17;;;;;;;8.35;5.30;;;;;;;12.81;89.37;97912.22;5004954;28;20076;-66
2022/05/21 02:11:44;;;;;;;9.80;5.55;;;;;;;12.74;89.96;97919.72;4995609;28;20043;-66
2022/05/21 02:14:11;;;;;;;8.90;4.85;;;;;;;12.73;89.92;97915.38;4994266;28;20042;-66
2022/05/21 02:16:38;;;;;;;18.30;5.55;;;;;;;12.63;90.15;97923.41;4996278;28;20042;-65
2022/05/21 02:19:06;;;;;;;6.55;5.18;;;;;;;12.57;90.59;97925.22;4984776;28;20405;-66
2022/05/21 02:21:36;;;;;;;9.30;5.95;;;;;;;12.53;90.78;97930.31;4997602;28;20847;-65
2022/05/21 02:24:03;;;;;;;8.18;5.57;;;;;;;12.55;90.86;97924.63;5014562;28;20053;-66
2022/05/21 02:26:38;;;;;;;11.52;5.55;;;;;;;12.47;90.45;97940.31;5017439;28;20096;-64
2022/05/21 02:29:07;;;;;;;8.50;5.47;;;;;;;12.51;90.00;97937.91;4992768;28;20394;-65
2022/05/21 02:31:33;;;;;;;9.88;5.90;;;;;;;12.45;90.90;97937.00;5010646;28;20052;-66
2022/05/21 02:34:00;;;;;;;8.88;5.60;;;;;;;12.37;90.17;97942.88;4989321;28;20043;-65
2022/05/21 02:39:25;;;;;;;9.95;6.10;;;;;;;12.23;90.18;97932.34;5009455;28;20052;-65
2022/05/21 02:41:52;;;;;;;10.27;5.95;;;;;;;12.20;89.52;97940.19;4995588;28;20045;-65
2022/05/21 02:44:19;;;;;;;9.98;5.65;;;;;;;12.19;89.44;97935.81;5005873;28;20700;-65
2022/05/21 02:46:47;;;;;;;7.32;5.25;;;;;;;12.14;89.83;97936.56;5004889;28;20261;-65
2022/05/21 02:49:13;;;;;;;12.13;5.88;;;;;;;12.05;89.90;97941.59;5008475;28;20046;-65
2022/05/21 02:51:40;;;;;;;9.90;5.88;;;;;;;12.08;89.83;97949.25;5004047;28;20049;-65
2022/05/21 02:54:06;;;;;;;8.52;5.82;;;;;;;12.06;90.32;97942.41;5009995;28;20045;-66
2022/05/21 02:56:35;;;;;;;8.23;6.40;;;;;;;12.01;90.39;97948.53;5015207;28;20112;-65
2022/05/21 02:59:06;;;;;;;10.20;6.38;;;;;;;11.98;90.42;97946.34;5022757;28;20120;-65
2022/05/21 03:01:33;;;;;;;8.95;6.18;;;;;;;11.85;90.97;97952.91;5007628;28;20038;-65
2022/05/21 03:04:00;;;;;;;9.55;6.38;;;;;;;11.82;91.14;97953.38;5008779;28;20084;-66
2022/05/21 03:06:27;;;;;;;8.73;6.30;;;;;;;11.69;91.38;97951.84;5001841;28;20042;-65
2022/05/21 03:11:39;;;;;;;8.77;5.82;;;;;;;11.60;91.34;97959.53;4999250;28;20042;-66
2022/05/21 03:14:06;;;;;;;9.18;5.72;;;;;;;11.57;91.67;97970.88;4988762;28;20565;-65
2022/05/21 03:16:33;;;;;;;9.82;6.20;;;;;;;11.53;91.89;97973.25;4992670;28;20042;-65
2022/05/21 03:18:59;;;;;;;9.13;6.70;;;;;;;11.53;91.68;97967.81;4988040;28;20423;-65
2022/05/21 03:21:26;;;;;;;11.32;7.13;;;;;;;11.54;91.36;97971.38;4997699;28;20050;-65
2022/05/21 03:23:53;;;;;;;9.27;7.45;;;;;;;11.61;92.41;97966.59;5012583;28;20041;-65
2022/05/21 03:26:19;;;;;;;13.45;6.90;;;;;;;11.51;90.87;97972.69;5012846;28;20060;-65
2022/05/21 03:28:46;;;;;;;8.85;7.10;;;;;;;11.48;91.50;97978.59;5008592;28;20330;-65
2022/05/21 03:31:12;;;;;;;8.52;6.82;;;;;;;11.41;91.41;97969.75;5009462;28;20053;-65
2022/05/21 03:33:39;;;;;;;11.23;6.03;;;;;;;11.39;91.12;97971.91;5001489;28;20042;-65
2022/05/21 03:36:08;;;;;;;8.90;7.22;;;;;;;11.36;91.50;97975.09;4992374;28;20076;-65
2022/05/21 03:38:34;;;;;;;9.93;6.47;;;;;;;11.25;91.82;97974.91;5015991;28;20045;-65
2022/05/21 03:41:01;;;;;;;10.50;6.22;;;;;;;11.29;91.61;97980.66;5006210;28;20104;-65
2022/05/21 03:43:27;;;;;;;11.65;7.13;;;;;;;11.26;92.31;97976.56;5004398;28;20744;-65
2022/05/21 03:45:55;;;;;;;11.60;7.32;;;;;;;11.17;91.52;97978.00;5011837;28;20045;-65
2022/05/21 03:48:22;;;;;;;11.45;6.97;;;;;;;11.18;91.94;97991.28;5024274;28;20049;-65
2022/05/21 03:50:48;;;;;;;13.07;8.30;;;;;;;11.14;91.86;97983.91;5008904;28;20050;-65
2022/05/21 03:53:16;;;;;;;10.10;7.47;;;;;;;11.10;92.10;97999.81;5020799;28;20052;-65
2022/05/21 03:55:44;;;;;;;10.30;7.28;;;;;;;11.04;92.32;97998.91;5013610;28;20050;-65
2022/05/21 03:58:11;;;;;;;10.45;7.25;;;;;;;11.08;92.43;97998.41;5002357;28;20088;-65
2022/05/21 04:00:39;;;;;;;13.10;7.43;;;;;;;11.05;92.04;98008.66;5006323;28;20042;-65
2022/05/21 04:03:06;;;;;;;11.90;7.43;;;;;;;11.13;91.20;98001.22;5006213;28;20042;-65
2022/05/21 04:05:33;;;;;;;9.57;7.00;;;;;;;11.14;91.88;98003.72;4998642;28;20046;-64
2022/05/21 04:07:59;;;;;;;14.60;7.53;;;;;;;11.09;91.40;98006.28;4993653;28;20053;-65
2022/05/21 04:10:26;;;;;;;10.45;7.50;;;;;;;11.20;92.29;97999.19;4999898;28;20053;-65
2022/05/21 04:12:52;;;;;;;12.23;7.10;;;;;;;11.15;90.65;98002.63;4986786;28;20498;-66
2022/05/21 04:15:19;;;;;;;10.60;7.90;;;;;;;11.22;90.33;97998.94;4999785;28;20042;-65
2022/05/21 04:17:47;;;;;;;10.05;6.78;;;;;;;11.18;90.38;97999.41;5006652;28;20433;-64
2022/05/21 04:20:15;;;;;;;12.52;7.32;;;;;;;11.24;90.46;98000.34;5000565;28;20469;-64
2022/05/21 04:22:42;;;;;;;9.88;6.18;;;;;;;11.27;90.76;97997.16;4998074;28;20046;-65
2022/05/21 04:25:10;;;;;;;10.52;6.72;;;;;;;11.33;89.75;97998.09;5006444;28;20097;-65
2022/05/21 04:27:39;;;;;;;12.77;6.82;;;;;;;11.23;91.12;97998.72;5005838;28;20516;-65
2022/05/21 04:30:28;;;;;;;8.65;6.85;;;;;;;11.24;90.35;98005.78;5005424;28;20072;-65
2022/05/21 04:32:57;;;;;;;9.48;5.82;;;;;;;11.39;89.83;98001.75;5006056;28;20050;-66
2022/05/21 04:35:25;;;;;;;9.70;6.30;;;;;;;11.30;89.60;98004.81;5005981;28;20156;-65
2022/05/21 04:37:52;;;;;;;13.55;7.32;;;;;;;11.35;89.58;98012.22;4999188;28;20041;-65
2022/05/21 04:40:22;;;;;;;9.48;6.35;;;;;;;11.40;89.15;98015.06;5002425;28;20045;-65
2022/05/21 04:42:49;;;;;;;15.27;6.45;;;;;;;11.49;88.99;98017.34;4998947;28;20038;-65
2022/05/21 04:45:16;;;;;;;9.68;6.55;;;;;;;11.58;88.58;98019.44;5011407;28;20716;-65
2022/05/21 04:47:43;;;;;;;10.40;7.07;;;;;;;11.63;88.46;98028.75;5014942;28;20124;-65
2022/05/21 04:50:10;;;;;;;9.57;6.03;;;;;;;11.57;88.12;98022.38;5011105;28;20507;-65
2022/05/21 04:52:37;;;;;;;10.05;6.15;;;;;;;11.57;88.37;98031.38;5001483;28;20047;-65
2022/05/21 04:55:08;;;;;;;9.95;6.10;;;;;;;11.61;87.91;98026.28;5010067;28;20494;-65
2022/05/21 04:57:34;;;;;;;8.32;5.70;;;;;;;11.66;87.77;98031.81;5001552;28;20049;-64
2022/05/21 05:00:03;;;;;;;9.77;6.72;;;;;;;11.67;87.11;98019.06;5015126;28;20101;-64
2022/05/21 05:02:30;;;;;;;8.68;6.72;;;;;;;11.69;86.68;98028.59;5006800;28;20046;-65
2022/05/21 05:04:57;;;;;;;8.35;6.70;;;;;;;11.81;85.95;98023.13;5010739;28;20060;-64
2022/05/21 05:07:24;;;;;;;7.60;5.93;;;;;;;11.92;85.97;98020.59;5021502;28;20053;-66
2022/05/21 05:09:50;;;;;;;9.32;5.93;;;;;;;11.98;85.59;98030.47;5003689;28;20115;-66
2022/05/21 05:12:17;;;;;;;8.23;6.32;;;;;;;12.00;85.62;98024.78;5011372;28;20037;-65
2022/05/21 05:14:43;;;;;;;8.77;6.15;;;;;;;12.15;85.15;98029.66;5006851;28;20416;-64
2022/05/21 05:17:13;;;;;;;9.60;5.72;;;;;;;12.19;84.71;98028.09;5018622;28;20045;-65
2022/05/21 05:19:40;;;;;;;7.78;5.93;;;;;;;12.18;83.66;98031.91;5012464;28;20045;-64
2022/05/21 05:22:10;;;;;;;7.25;4.97;;;;;;;12.28;83.70;98029.38;5003301;28;20049;-65
2022/05/21 05:24:37;;;;;;;9.70;5.93;;;;;;;12.23;83.35;98031.97;5004900;28;20052;-65
2022/05/21 05:27:05;;;;;;;8.88;5.47;;;;;;;12.34;83.16;98031.09;5010054;28;20056;-65
2022/05/21 05:29:31;;;;;;;7.15;5.35;;;;;;;12.39;83.31;98032.25;5008354;28;20266;-65
2022/05/21 05:31:58;;;;;;;7.75;5.00;;;;;;;12.59;82.62;98029.84;5017001;28;20046;-56
2022/05/21 05:34:26;;;;;;;7.43;5.13;;;;;;;12.55;82.26;98030.56;5009389;28;20057;-55
2022/05/21 05:36:53;;;;;;;7.95;5.78;;;;;;;12.67;81.05;98025.88;4999683;28;20042;-54
2022/05/21 05:39:20;;;;;;;9.18;5.55;;;;;;;12.56;80.47;98024.91;4997523;28;20050;-52
2022/05/21 05:41:46;;;;;;;7.82;5.30;;;;;;;12.58;79.93;98028.19;4996987;28;20053;-67
2022/05/21 05:44:13;;;;;;;8.40;4.68;;;;;;;12.73;80.77;98037.63;4992888;28;20050;-67
2022/05/21 05:46:39;;;;;;;10.10;5.13;;;;;;;12.82;80.64;98027.97;5004433;28;20100;-66
2022/05/21 05:49:06;;;;;;;7.28;4.57;;;;;;;12.84;80.34;98034.00;5001303;28;20133;-66
2022/05/21 05:51:32;;;;;;;6.50;4.22;;;;;;;12.72;79.51;98022.41;5007031;28;20092;-66
2022/05/21 05:53:59;;;;;;;8.23;5.18;;;;;;;12.74;79.64;98025.69;5011769;28;20049;-67
2022/05/21 05:56:32;;;;;;;5.82;4.25;;;;;;;12.84;79.60;98028.56;5016608;28;20049;-66
2022/05/21 06:01:44;;;;;;;6.40;4.10;;;;;;;12.87;79.47;98029.97;5001779;28;20046;-66
2022/05/21 06:04:11;;;;;;;7.63;3.80;;;;;;;13.01;78.61;98036.66;5025929;28;20045;-67
2022/05/21 06:06:37;;;;;;;6.22;3.97;;;;;;;12.98;78.72;98030.91;5015374;28;20053;-67
2022/05/21 06:09:04;;;;;;;7.15;4.30;;;;;;;13.03;78.22;98041.03;5015238;28;20132;-66
2022/05/21 06:11:37;;;;;;;5.53;3.70;;;;;;;13.11;77.20;98041.41;5004590;28;20049;-67
2022/05/21 06:14:05;;;;;;;6.43;3.75;;;;;;;13.18;77.68;98043.13;5012161;28;20096;-67
2022/05/21 06:16:33;;;;;;;6.35;3.15;;;;;;;13.24;76.79;98047.56;5016783;28;20056;-67
2022/05/21 06:18:59;;;;;;;6.10;3.22;;;;;;;13.43;75.94;98044.50;4999334;28;20115;-67
2022/05/21 06:21:26;;;;;;;5.05;2.92;;;;;;;13.44;75.72;98044.25;4993673;28;20525;-67
2022/05/21 06:23:53;;;;;;;4.97;2.70;;;;;;;13.61;73.64;98046.13;5017066;28;20471;-67
2022/05/21 06:26:20;;;;;;;6.63;2.63;;;;;;;13.59;73.84;98043.63;5015195;28;20053;-67
2022/05/21 06:28:48;;;;;;;4.75;2.30;;;;;;;13.65;71.26;98031.72;5010290;28;20054;-66
2022/05/21 06:31:16;;;;;;;4.60;2.38;;;;;;;13.75;71.67;98050.06;4997599;28;20034;-66
2022/05/21 06:33:42;;;;;;;4.82;2.10;;;;;;;13.85;68.95;98049.34;5003032;28;20464;-67
2022/05/21 06:36:12;;;;;;;4.45;2.70;;;;;;;14.10;69.74;98036.25;4988898;28;20129;-66
2022/05/21 06:38:40;;;;;;;3.05;1.90;;;;;;;14.33;69.39;98039.72;5009312;28;20042;-67
2022/05/21 06:41:07;;;;;;;4.75;1.75;;;;;;;14.53;69.09;98033.59;5016184;28;20095;-67
2022/05/21 06:43:34;;;;;;;2.60;1.67;;;;;;;14.67;67.96;98036.69;5015105;28;20045;-67
2022/05/21 06:46:01;;;;;;;3.60;1.70;;;;;;;14.61;66.53;98041.28;5007629;28;20045;-66
2022/05/21 06:48:28;;;;;;;4.93;1.60;;;;;;;14.43;65.89;98037.88;5014427;28;20049;-67
2022/05/21 06:50:56;;;;;;;5.03;1.70;;;;;;;14.20;66.87;98038.22;5020649;28;20057;-66
2022/05/21 06:53:22;;;;;;;2.97;1.20;;;;;;;14.34;66.24;98054.97;5007221;28;20686;-67
2022/05/21 06:55:50;;;;;;;2.92;1.00;;;;;;;14.43;65.62;98050.69;5013341;28;20536;-67
2022/05/21 06:58:17;;;;;;;5.90;1.15;;;;;;;14.31;64.61;98053.59;5001846;28;20116;-67
2022/05/21 07:00:45;;;;;;;2.65;0.90;;;;;;;14.42;64.21;98046.31;5012155;28;20441;-67
2022/05/21 07:03:11;;;;;;;2.05;1.17;;;;;;;14.41;65.37;98055.59;5024910;28;20037;-66
2022/05/21 07:08:26;;;;;;;4.72;0.95;;;;;;;14.46;65.62;98068.41;5003523;28;20054;-66
2022/05/21 07:10:53;;;;;;;3.88;0.90;;;;;;;14.54;62.34;98062.47;5009899;28;20053;-66
2022/05/21 07:13:22;;;;;;;3.05;0.90;;;;;;;14.63;62.59;98060.91;5022267;28;20053;-68
2022/05/21 07:15:49;;;;;;;2.58;0.80;;;;;;;14.76;63.04;98056.94;5019808;28;20051;-68
2022/05/21 07:18:18;;;;;;;2.88;0.90;;;;;;;14.93;62.57;98050.50;5010926;28;20332;-68
2022/05/21 07:20:46;;;;;;;1.83;0.65;;;;;;;14.89;59.23;98052.13;4989443;28;20052;-68
2022/05/21 07:23:13;;;;;;;3.78;0.90;;;;;;;14.38;61.13;98043.28;5006954;28;20057;-67
2022/05/21 07:25:40;;;;;;;3.00;1.10;;;;;;;14.65;63.65;98045.13;5015337;28;20603;-67
2022/05/21 07:28:08;;;;;;;2.80;0.70;;;;;;;14.78;62.14;98030.22;5012501;28;20504;-68
2022/05/21 07:30:36;;;;;;;1.60;0.70;;;;;;;14.87;62.56;98033.31;5006009;28;20041;-67
2022/05/21 07:33:04;;;;;;;4.22;0.90;;;;;;;14.89;61.99;98028.38;5006431;28;20054;-66
2022/05/21 07:35:30;;;;;;;5.65;1.60;;;;;;;14.75;61.37;98021.75;5012464;28;20119;-66
2022/05/21 07:37:57;;;;;;;1.52;0.70;;;;;;;14.89;61.40;98017.47;5016362;28;20046;-67
2022/05/21 07:40:24;;;;;;;3.20;0.68;;;;;;;15.01;60.04;98028.19;5012844;28;20537;-67
2022/05/21 07:42:52;;;;;;;2.85;0.75;;;;;;;14.72;60.40;98031.28;5015927;28;20436;-67
2022/05/21 07:45:20;;;;;;;3.10;0.73;;;;;;;14.87;61.34;98033.31;5002269;28;20145;-67
2022/05/21 07:47:49;;;;;;;2.50;0.70;;;;;;;14.98;61.21;98044.25;4985734;28;20054;-66
2022/05/21 07:50:17;;;;;;;5.15;1.15;;;;;;;15.21;61.95;98043.00;4997783;28;20125;-68
2022/05/21 07:52:44;;;;;;;1.23;0.57;;;;;;;15.26;60.58;98047.66;4999312;28;20092;-67
2022/05/21 07:55:11;;;;;;;2.50;0.60;;;;;;;15.44;60.81;98044.47;5006288;28;20116;-68
2022/05/21 07:57:38;;;;;;;1.70;0.55;;;;;;;15.57;58.52;98036.88;4999962;28;20084;-67
2022/05/21 08:00:07;;;;;;;0.80;0.52;;;;;;;15.53;60.11;98042.03;4997932;28;20053;-67
2022/05/21 08:02:41;;;;;;;1.48;0.60;;;;;;;15.46;58.90;98042.31;4999587;28;20096;-67
2022/05/21 08:05:08;;;;;;;2.22;0.90;;;;;;;15.49;59.83;98032.75;4997618;28;20115;-67
2022/05/21 08:07:35;;;;;;;2.53;0.80;;;;;;;15.68;60.23;98032.25;5006055;28;20041;-68
2022/05/21 08:10:04;;;;;;;1.70;0.70;;;;;;;15.83;60.08;98034.19;5004911;28;20026;-67
2022/05/21 08:12:30;;;;;;;1.92;0.57;;;;;;;15.63;58.00;98037.72;4993664;28;20062;-67
2022/05/21 08:14:57;;;;;;;0.85;0.55;;;;;;;15.87;58.76;98038.03;4994844;28;20045;-68
2022/05/21 08:17:24;;;;;;;1.55;0.43;;;;;;;15.77;57.50;98040.75;4985888;28;20498;-67
2022/05/21 08:19:50;;;;;;;1.20;0.60;;;;;;;15.93;59.15;98028.78;4990152;28;20049;-67
2022/05/21 08:27:51;;;;;;;2.00;0.70;;;;;;;15.93;58.63;98026.03;5012221;28;20061;-67
2022/05/21 08:30:17;;;;;;;1.17;0.60;;;;;;;15.98;57.63;98037.00;4994022;28;20394;-67
2022/05/21 08:32:44;;;;;;;1.17;0.47;;;;;;;15.91;57.84;98030.94;5014601;28;20050;-68
2022/05/21 08:35:10;;;;;;;1.35;0.80;;;;;;;15.91;59.18;98028.19;5011256;28;20041;-67
2022/05/21 08:37:37;;;;;;;3.45;0.85;;;;;;;16.08;59.23;98028.00;5003885;28;20088;-68
2022/05/21 08:40:05;;;;;;;2.03;0.70;;;;;;;15.82;58.63;98038.81;4995874;28;20077;-67
2022/05/21 08:42:38;;;;;;;2.72;1.08;;;;;;;15.93;59.38;98034.22;4998694;28;20045;-67
2022/05/21 08:45:19;;;;;;;2.83;0.77;;;;;;;16.24;58.42;98039.75;5001116;28;20053;-66
2022/05/21 08:47:54;;;;;;;1.33;0.55;;;;;;;16.41;58.76;98027.72;5012533;28;20046;-67
2022/05/21 08:50:23;;;;;;;3.08;0.50;;;;;;;16.43;57.41;98030.97;5014193;28;20033;-66
2022/05/21 08:53:05;;;;;;;1.80;0.52;;;;;;;16.83;57.16;98033.09;5004544;28;20516;-67
2022/05/21 08:55:37;;;;;;;1.90;0.52;;;;;;;16.85;55.03;98023.53;5006602;28;20049;-68
2022/05/21 08:58:14;;;;;;;1.33;0.55;;;;;;;16.66;55.49;98026.03;5022428;28;20053;-68
2022/05/21 09:00:44;;;;;;;4.28;0.68;;;;;;;16.88;56.57;98024.91;5002236;28;20045;-68
2022/05/21 09:03:14;;;;;;;1.30;0.47;;;;;;;16.62;55.45;98028.50;4996318;28;20092;-67
2022/05/21 09:05:46;;;;;;;1.15;0.50;;;;;;;16.72;55.92;98024.94;5000611;28;20049;-67
2022/05/21 09:08:24;;;;;;;1.45;0.70;;;;;;;16.61;55.25;98017.84;5004694;28;20052;-66
2022/05/21 09:11:01;;;;;;;5.28;1.75;;;;;;;16.66;56.41;98020.56;5008124;28;20481;-66
2022/05/21 09:13:28;;;;;;;2.50;0.57;;;;;;;16.70;56.67;98007.97;4994391;28;20045;-66
2022/05/21 09:18:41;;;;;;;2.47;0.70;;;;;;;16.74;56.46;98013.72;5006213;28;20042;-58
2022/05/21 09:21:13;;;;;;;8.35;1.23;;;;;;;16.67;56.61;98015.91;5006009;28;20684;-58
2022/05/21 09:23:54;;;;;;;2.58;0.45;;;;;;;16.81;55.74;98013.44;4993818;28;20046;-58
2022/05/21 09:26:24;;;;;;;3.42;0.50;;;;;;;16.85;56.53;98003.59;4997681;28;20177;-61
2022/05/21 09:28:52;;;;;;;2.38;0.55;;;;;;;17.11;56.37;98007.09;5008097;28;20681;-59
2022/05/21 09:31:30;;;;;;;1.30;0.50;;;;;;;16.98;55.95;98008.47;5016033;28;20044;-59
2022/05/21 09:34:26;;;;;;;2.28;0.77;;;;;;;17.09;55.84;98002.97;5001032;28;20062;-60
2022/05/21 09:36:53;;;;;;;1.50;0.50;;;;;;;16.96;56.75;97999.72;4997543;28;20057;-59
2022/05/21 09:39:38;;;;;;;7.00;1.45;;;;;;;17.24;55.60;97997.44;5006030;28;20057;-59
2022/05/21 09:45:26;;;;;;;1.58;0.40;;;;;;;17.39;54.01;97987.53;5001480;28;20089;-61
2022/05/21 09:48:13;;;;;;;1.60;0.60;;;;;;;17.92;53.13;97986.13;5009794;28;20048;-61
2022/05/21 09:50:59;;;;;;;6.72;0.75;;;;;;;17.97;51.96;97993.47;5006352;28;20480;-61
2022/05/21 09:53:28;;;;;;;2.47;0.85;;;;;;;18.25;53.19;97989.19;5009251;28;20046;-60
2022/05/21 09:56:05;;;;;;;2.00;0.82;;;;;;;18.35;51.45;97996.47;5009344;28;20045;-59
2022/05/21 09:58:36;;;;;;;1.50;0.60;;;;;;;18.02;51.13;97998.94;5001716;28;20568;-60
2022/05/21 10:01:03;;;;;;;1.40;0.50;;;;;;;17.92;52.78;97986.91;5022092;28;20684;-60
2022/05/21 10:03:54;;;;;;;2.80;0.65;;;;;;;18.20;53.06;97991.94;5020528;28;20496;-60
2022/05/21 10:06:40;;;;;;;1.65;0.50;;;;;;;18.10;50.99;97990.13;5012077;28;20041;-59
2022/05/21 10:12:08;;;;;;;2.53;0.60;;;;;;;18.46;51.48;97992.53;5017004;28;20049;-60
2022/05/21 10:15:00;;;;;;;4.47;0.90;;;;;;;18.27;49.90;97986.97;5006607;28;20064;-60
2022/05/21 10:17:33;;;;;;;2.97;0.68;;;;;;;18.49;51.32;97982.09;5004648;28;20044;-59
2022/05/21 10:20:20;;;;;;;1.70;0.43;;;;;;;18.52;51.17;97982.34;5005537;28;20077;-60
2022/05/21 10:22:56;;;;;;;1.92;0.60;;;;;;;18.39;49.90;97981.09;5006110;28;20049;-59
2022/05/21 10:25:29;;;;;;;1.50;0.50;;;;;;;18.53;51.36;97983.97;5007697;28;20049;-58
2022/05/21 10:28:24;;;;;;;1.52;0.55;;;;;;;18.86;50.36;97964.16;4993943;28;20064;-58
2022/05/21 10:31:14;;;;;;;2.90;0.70;;;;;;;18.80;50.64;97965.34;5005088;28;20465;-59
2022/05/21 10:34:19;;;;;;;2.70;0.63;;;;;;;19.15;51.40;97962.47;5008404;28;20049;-58
2022/05/21 10:37:07;;;;;;;1.38;0.50;;;;;;;18.93;50.46;97961.06;4994536;28;20046;-57
2022/05/21 10:39:46;;;;;;;5.57;0.82;;;;;;;18.39;50.89;97966.56;5014514;28;20046;-57
2022/05/21 10:42:31;;;;;;;3.40;0.70;;;;;;;18.55;49.24;97968.06;5005365;28;20049;-59
2022/05/21 10:45:16;;;;;;;2.10;0.73;;;;;;;18.84;49.89;97958.16;5008579;28;20126;-58
2022/05/21 10:48:10;;;;;;;4.00;0.70;;;;;;;18.87;49.09;97948.53;5003656;28;20046;-57
2022/05/21 10:51:06;;;;;;;3.30;1.00;;;;;;;19.19;49.49;97952.53;5000934;28;20042;-58
2022/05/21 10:53:57;;;;;;;2.88;0.90;;;;;;;19.29;48.56;97948.84;5000135;28;20050;-59
2022/05/21 10:56:42;;;;;;;2.60;0.52;;;;;;;19.41;48.02;97946.47;4994880;28;20521;-58
2022/05/21 10:59:21;;;;;;;3.22;0.50;;;;;;;19.55;48.34;97940.22;4999154;28;20049;-58
2022/05/21 11:02:19;;;;;;;2.90;0.68;;;;;;;19.57;47.42;97938.81;5014832;28;20045;-59
2022/05/21 11:04:58;;;;;;;1.50;0.50;;;;;;;19.52;47.02;97946.31;5000258;28;20053;-58
2022/05/21 11:07:37;;;;;;;2.67;0.68;;;;;;;19.61;45.55;97941.81;5010190;28;20497;-58
2022/05/21 11:10:18;;;;;;;1.85;0.63;;;;;;;19.47;46.60;97952.72;5006886;28;20556;-59
2022/05/21 11:12:51;;;;;;;2.22;1.20;;;;;;;19.85;47.46;97932.63;5003786;28;20049;-56
2022/05/21 11:15:48;;;;;;;3.78;0.77;;;;;;;19.17;44.75;97939.09;5011459;28;20050;-56
2022/05/21 11:18:40;;;;;;;2.20;0.50;;;;;;;19.42;46.26;97933.56;5008793;28;20052;-56
2022/05/21 11:21:59;;;;;;;2.05;0.98;;;;;;;19.63;45.60;97939.56;5009344;28;20589;-58
2022/05/21 11:24:51;;;;;;;2.97;1.15;;;;;;;19.85;44.85;97940.88;4965021;28;20064;-59
2022/05/21 11:27:25;;;;;;;2.03;0.52;;;;;;;19.67;43.54;97937.84;5000917;28;20455;-59
2022/05/21 11:30:00;;;;;;;2.60;0.73;;;;;;;19.66;45.22;97924.41;5003121;28;20157;-58
2022/05/21 11:38:20;;;;;;;1.55;0.70;;;;;;;19.96;44.34;97927.78;5003501;28;20552;-58
2022/05/21 11:40:52;;;;;;;2.20;0.70;;;;;;;20.06;43.53;97930.41;5007396;28;20096;-57
2022/05/21 11:43:21;;;;;;;3.70;1.15;;;;;;;20.62;44.05;97932.44;4995584;28;20068;-57
2022/05/21 11:46:05;;;;;;;1.98;0.60;;;;;;;20.75;42.94;97939.88;4989317;28;20050;-59
2022/05/21 11:48:32;;;;;;;3.92;1.17;;;;;;;20.68;42.19;97942.22;5016489;28;20125;-56
2022/05/21 11:51:17;;;;;;;2.83;0.80;;;;;;;20.46;42.55;97937.41;4998773;28;20042;-55
2022/05/21 11:53:45;;;;;;;2.05;0.57;;;;;;;20.53;41.79;97927.63;5001261;28;21016;-60
2022/05/21 11:56:13;;;;;;;1.67;0.60;;;;;;;20.30;42.42;97926.69;4998756;28;20536;-58
2022/05/21 11:58:58;;;;;;;2.92;0.63;;;;;;;20.42;43.14;97928.13;5006644;28;20049;-57
2022/05/21 12:01:36;;;;;;;1.70;0.90;;;;;;;20.57;43.45;97929.78;5009114;28;20050;-55
2022/05/21 12:04:03;;;;;;;3.33;0.70;;;;;;;20.79;43.93;97924.38;5009297;28;20057;-59
2022/05/21 12:06:37;;;;;;;3.22;0.63;;;;;;;21.20;43.03;97921.94;5016126;28;20045;-58
2022/05/21 12:09:11;;;;;;;2.08;0.60;;;;;;;21.67;40.61;97920.88;5008458;28;20132;-59
2022/05/21 12:11:42;;;;;;;4.70;0.73;;;;;;;21.93;40.58;97926.59;4994119;28;20049;-59
2022/05/21 12:14:20;;;;;;;2.70;0.60;;;;;;;21.29;40.08;97911.81;4996437;28;20737;-58
2022/05/21 12:16:50;;;;;;;1.77;0.50;;;;;;;21.73;37.79;97922.41;5000986;28;20833;-56
2022/05/21 12:19:44;;;;;;;1.42;0.40;;;;;;;21.66;40.41;97916.47;5006987;28;20049;-56